Time;durP1;ratioP1;P1;durP2;ratioP2;P2;SDS_P1;SDS_P2;PMS_P1;PMS_P2;Temp;Humidity;BMP_temperature;BMP_pressure;BME280_temperature;BME280_humidity;BME280_pressure;Samples;Min_cycle;Max_cycle;Signal;HPM_P1;HPM_P2
2022/10/17 00:00:32;;;;;;;3.00;1.30;;;;;;;16.89;66.45;97249.63;6275514;22;20020;-78
2022/10/17 00:03:01;;;;;;;6.95;1.30;;;;;;;16.85;66.48;97256.31;6275467;22;20098;-78
2022/10/17 00:05:29;;;;;;;4.13;1.80;;;;;;;16.81;66.55;97255.09;6275167;22;20019;-78
2022/10/17 00:07:56;;;;;;;1.98;1.10;;;;;;;16.77;66.49;97264.41;6275052;22;20030;-78
2022/10/17 00:10:24;;;;;;;2.92;1.30;;;;;;;16.75;66.64;97261.19;6275768;22;20030;-77
2022/10/17 00:12:52;;;;;;;2.75;0.98;;;;;;;16.73;66.39;97265.84;6275462;22;20026;-78
2022/10/17 00:15:20;;;;;;;6.95;1.95;;;;;;;16.71;66.76;97265.22;6275528;22;20026;-78
2022/10/17 00:17:48;;;;;;;1.42;1.20;;;;;;;16.69;66.42;97268.06;6274561;22;20020;-77
2022/10/17 00:20:17;;;;;;;8.45;2.55;;;;;;;16.68;66.63;97268.25;6275715;22;20024;-77
2022/10/17 00:22:45;;;;;;;1.30;1.00;;;;;;;16.66;66.52;97255.31;6293129;22;20039;-78
2022/10/17 00:25:13;;;;;;;3.03;1.23;;;;;;;16.66;66.46;97265.00;6299814;22;20043;-78
2022/10/17 00:27:41;;;;;;;1.80;1.20;;;;;;;16.65;66.47;97268.69;6295550;22;20027;-77
2022/10/17 00:30:12;;;;;;;2.15;1.10;;;;;;;16.65;66.26;97271.31;6276233;22;20020;-77
2022/10/17 00:32:39;;;;;;;3.92;1.17;;;;;;;16.65;66.17;97266.84;6275730;22;20107;-77
2022/10/17 00:35:08;;;;;;;3.15;1.05;;;;;;;16.62;66.36;97266.47;6275599;22;20031;-78
2022/10/17 00:37:37;;;;;;;4.38;1.20;;;;;;;16.59;66.33;97267.66;6275451;22;20015;-78
2022/10/17 00:40:06;;;;;;;5.18;1.23;;;;;;;16.57;66.29;97263.59;6275074;22;20026;-77
2022/10/17 00:42:34;;;;;;;6.20;1.38;;;;;;;16.54;66.49;97269.28;6275476;22;20023;-77
2022/10/17 00:45:21;;;;;;;3.95;1.40;;;;;;;16.52;66.57;97279.22;6275479;22;20023;-77
2022/10/17 00:47:54;;;;;;;5.22;1.17;;;;;;;16.50;66.45;97275.97;6275171;22;20022;-77
2022/10/17 00:50:22;;;;;;;;;;;;;;;16.51;66.27;97270.50;6283648;22;20016;-78
2022/10/17 00:52:52;;;;;;;1.40;0.98;;;;;;;16.49;66.03;97272.53;6283873;22;19959;-77
2022/10/17 00:55:22;;;;;;;2.65;1.20;;;;;;;16.49;66.06;97277.81;6276214;22;20069;-77
2022/10/17 00:57:51;;;;;;;3.70;1.38;;;;;;;16.51;66.05;97272.31;6274810;22;20467;-77
2022/10/17 01:00:19;;;;;;;10.48;1.85;;;;;;;16.50;65.90;97275.97;6275563;22;20027;-77
2022/10/17 01:02:47;;;;;;;2.90;1.10;;;;;;;16.50;66.04;97283.88;6274843;22;20026;-77
2022/10/17 01:05:16;;;;;;;3.10;1.20;;;;;;;16.49;66.17;97283.06;6274929;22;20024;-78
2022/10/17 01:07:45;;;;;;;7.82;1.30;;;;;;;16.49;65.94;97285.69;6274838;22;20016;-76
2022/10/17 01:10:15;;;;;;;1.75;1.50;;;;;;;16.51;66.12;97286.31;6275108;22;20023;-76
2022/10/17 01:12:56;;;;;;;1.70;1.08;;;;;;;16.55;67.51;97294.59;6275324;22;20026;-77
2022/10/17 01:15:38;;;;;;;3.45;1.50;;;;;;;16.56;66.52;97290.97;6275678;22;20022;-77
2022/10/17 01:18:15;;;;;;;4.63;0.98;;;;;;;16.57;65.83;97289.94;6276606;22;20027;-77
2022/10/17 01:21:23;;;;;;;6.75;1.20;;;;;;;16.55;65.50;97287.53;6277201;22;20019;-77
2022/10/17 01:24:17;;;;;;;6.50;1.48;;;;;;;16.52;65.78;97282.66;6246855;22;20033;-77
2022/10/17 01:27:08;;;;;;;1.65;0.80;;;;;;;16.45;65.93;97285.28;6276982;22;20019;-77
2022/10/17 01:29:50;;;;;;;3.92;1.20;;;;;;;16.37;66.20;97274.94;6276717;22;20024;-77
2022/10/17 01:32:24;;;;;;;5.57;1.20;;;;;;;16.31;66.48;97275.78;6277203;22;20026;-77
2022/10/17 01:34:59;;;;;;;2.05;1.55;;;;;;;16.26;66.56;97278.19;6276973;22;20016;-77
2022/10/17 01:37:33;;;;;;;2.05;1.20;;;;;;;16.21;66.97;97272.72;6277014;22;20026;-77
2022/10/17 01:40:06;;;;;;;8.75;1.60;;;;;;;16.15;67.06;97273.50;6276792;22;20024;-77
2022/10/17 01:42:39;;;;;;;5.53;1.40;;;;;;;16.11;67.10;97275.72;6276509;22;20023;-77
2022/10/17 01:45:12;;;;;;;1.17;1.00;;;;;;;16.08;67.12;97272.69;6276588;22;20023;-77
2022/10/17 01:47:42;;;;;;;4.20;1.45;;;;;;;16.04;67.04;97270.44;6276171;22;20463;-77
2022/10/17 01:50:15;;;;;;;5.03;1.50;;;;;;;16.02;67.13;97272.47;6276960;22;20095;-77
2022/10/17 01:52:48;;;;;;;3.20;1.63;;;;;;;16.00;67.19;97263.97;6277249;22;20378;-77
2022/10/17 01:55:20;;;;;;;1.40;1.00;;;;;;;15.99;67.24;97264.19;6276505;22;20015;-77
2022/10/17 01:57:51;;;;;;;2.72;1.13;;;;;;;15.98;67.34;97266.00;6276332;22;20019;-77
2022/10/17 02:00:22;;;;;;;1.02;0.90;;;;;;;15.97;67.31;97258.31;6276324;22;20023;-77
2022/10/17 02:02:55;;;;;;;0.95;0.95;;;;;;;15.96;67.52;97262.75;6276792;22;20026;-77
2022/10/17 02:05:27;;;;;;;1.42;1.20;;;;;;;15.95;67.43;97262.97;6276682;22;20026;-77
2022/10/17 02:07:55;;;;;;;4.28;1.20;;;;;;;15.93;67.37;97263.16;6276433;22;20346;-77
2022/10/17 02:10:35;;;;;;;6.03;1.35;;;;;;;15.91;67.57;97259.91;6276526;22;20034;-77
2022/10/17 02:13:09;;;;;;;2.40;1.08;;;;;;;15.89;67.68;97261.91;6276615;22;20050;-77
2022/10/17 02:15:54;;;;;;;2.30;0.98;;;;;;;15.88;67.74;97260.31;6277108;22;20427;-78
2022/10/17 02:18:46;;;;;;;1.02;0.80;;;;;;;15.86;67.72;97264.97;6275596;22;20019;-77
2022/10/17 02:21:18;;;;;;;4.30;1.17;;;;;;;15.83;67.77;97257.44;6276559;22;20020;-77
2022/10/17 02:23:53;;;;;;;5.50;1.10;;;;;;;15.79;67.97;97266.78;6276609;22;20023;-78
2022/10/17 02:26:26;;;;;;;3.20;0.93;;;;;;;15.74;68.21;97256.84;6276351;22;20020;-77
2022/10/17 02:29:04;;;;;;;3.95;1.30;;;;;;;15.72;68.40;97253.59;6275760;22;20020;-77
2022/10/17 02:31:37;;;;;;;2.75;1.50;;;;;;;15.68;68.51;97254.13;6276408;22;20452;-77
2022/10/17 02:34:10;;;;;;;5.40;1.50;;;;;;;15.64;68.83;97259.81;6276313;22;20031;-77
2022/10/17 02:36:44;;;;;;;9.35;1.35;;;;;;;15.62;68.62;97259.19;6276432;22;20023;-77
2022/10/17 02:39:13;;;;;;;2.17;1.10;;;;;;;15.61;68.96;97259.38;6275921;22;20029;-77
2022/10/17 02:41:42;;;;;;;5.47;1.45;;;;;;;15.60;68.65;97269.09;6277755;22;20047;-77
2022/10/17 02:44:11;;;;;;;1.67;1.05;;;;;;;15.59;68.91;97267.50;6277734;22;20024;-77
2022/10/17 02:46:41;;;;;;;3.35;1.10;;;;;;;15.56;68.79;97251.28;6277317;22;20020;-77
2022/10/17 02:52:38;;;;;;;4.88;1.10;;;;;;;15.52;69.22;97266.63;6295307;22;20015;-77
2022/10/17 02:55:13;;;;;;;1.50;0.98;;;;;;;15.50;69.11;97267.84;6308139;22;20027;-77
2022/10/17 02:57:45;;;;;;;3.30;1.42;;;;;;;15.48;69.09;97262.81;6298120;22;20020;-78
2022/10/17 03:00:16;;;;;;;5.43;1.15;;;;;;;15.49;70.92;97269.66;6277052;22;20038;-78
2022/10/17 03:02:46;;;;;;;2.40;1.20;;;;;;;15.51;69.79;97270.28;6277274;22;20020;-77
2022/10/17 03:05:19;;;;;;;6.43;1.42;;;;;;;15.49;69.52;97266.22;6277264;22;20103;-77
2022/10/17 03:07:49;;;;;;;3.42;1.15;;;;;;;15.48;69.97;97264.59;6277371;22;20055;-77
2022/10/17 03:10:17;;;;;;;2.20;1.20;;;;;;;15.53;72.14;97273.53;6276723;22;20015;-77
2022/10/17 03:12:45;;;;;;;4.20;1.40;;;;;;;15.54;71.73;97279.59;6276906;22;20016;-77
2022/10/17 03:15:14;;;;;;;3.15;1.23;;;;;;;15.49;69.99;97267.03;6277364;22;20106;-77
2022/10/17 03:17:42;;;;;;;3.25;1.23;;;;;;;15.43;69.66;97273.88;6277127;22;20016;-78
2022/10/17 03:20:10;;;;;;;9.10;1.50;;;;;;;15.35;69.67;97276.69;6277284;22;20094;-78
2022/10/17 03:22:38;;;;;;;2.53;1.30;;;;;;;15.28;69.54;97282.91;6276733;22;20016;-78
2022/10/17 03:25:08;;;;;;;4.65;1.20;;;;;;;15.19;70.02;97280.44;6277094;22;20024;-79
2022/10/17 03:27:36;;;;;;;6.20;1.27;;;;;;;15.14;69.86;97280.22;6276687;22;20102;-77
2022/10/17 03:30:04;;;;;;;2.92;1.20;;;;;;;15.10;70.07;97283.44;6277217;22;20046;-78
2022/10/17 03:32:33;;;;;;;3.08;1.10;;;;;;;15.06;70.04;97283.00;6277518;22;20320;-77
2022/10/17 03:35:01;;;;;;;4.50;1.60;;;;;;;15.02;70.17;97289.63;6276646;22;20059;-78
2022/10/17 03:37:32;;;;;;;6.68;1.35;;;;;;;14.98;70.32;97286.59;6276883;22;20320;-78
2022/10/17 03:40:00;;;;;;;1.90;1.02;;;;;;;14.95;70.40;97288.78;6277407;22;20038;-78
2022/10/17 03:42:29;;;;;;;5.80;1.42;;;;;;;14.90;70.42;97284.13;6277925;22;20447;-78
2022/10/17 03:44:57;;;;;;;4.57;1.38;;;;;;;14.86;70.51;97284.69;6277686;22;20026;-78
2022/10/17 03:47:25;;;;;;;2.38;1.15;;;;;;;14.83;70.73;97291.94;6277146;22;20026;-78
2022/10/17 03:49:53;;;;;;;2.92;1.10;;;;;;;14.81;70.81;97293.16;6277357;22;20399;-78
2022/10/17 03:52:21;;;;;;;4.45;1.38;;;;;;;14.77;70.72;97290.09;6276391;22;20020;-78
2022/10/17 03:54:50;;;;;;;2.25;1.23;;;;;;;14.76;70.90;97293.72;6277455;22;20027;-78
2022/10/17 03:57:19;;;;;;;6.07;1.58;;;;;;;14.77;70.86;97286.66;6276508;22;20030;-78
2022/10/17 03:59:50;;;;;;;8.82;2.10;;;;;;;14.74;70.97;97297.56;6276616;22;20024;-78
2022/10/17 04:02:18;;;;;;;2.70;1.23;;;;;;;14.73;70.76;97298.53;6276594;22;20351;-78
2022/10/17 04:04:46;;;;;;;2.72;1.40;;;;;;;14.71;70.93;97297.91;6276893;22;20103;-78
2022/10/17 04:07:14;;;;;;;4.50;1.30;;;;;;;14.68;70.94;97296.47;6276913;22;20099;-78
2022/10/17 04:09:42;;;;;;;5.82;1.30;;;;;;;14.67;71.04;97294.88;6276484;22;20542;-78
2022/10/17 04:12:10;;;;;;;2.70;1.10;;;;;;;14.67;71.19;97300.13;6276506;22;20460;-78
2022/10/17 04:14:38;;;;;;;2.15;1.30;;;;;;;14.66;70.95;97298.50;6282295;22;20030;-78
2022/10/17 04:17:07;;;;;;;2.33;0.95;;;;;;;14.63;71.27;97299.69;6286165;22;20015;-78
2022/10/17 04:19:36;;;;;;;5.03;1.27;;;;;;;14.62;70.89;97305.13;6285704;22;20016;-78
2022/10/17 04:22:07;;;;;;;3.95;1.35;;;;;;;14.61;71.05;97306.13;6278167;22;20016;-78
2022/10/17 04:24:35;;;;;;;5.43;1.70;;;;;;;14.61;71.22;97301.69;6276986;22;20020;-78
2022/10/17 04:27:03;;;;;;;3.28;1.20;;;;;;;14.60;71.25;97305.28;6276291;22;20020;-78
2022/10/17 04:29:31;;;;;;;3.20;1.25;;;;;;;14.59;71.24;97313.38;6276206;22;20019;-79
2022/10/17 04:31:59;;;;;;;3.63;1.40;;;;;;;14.59;71.44;97308.13;6276594;22;20057;-77
2022/10/17 04:34:28;;;;;;;7.43;2.22;;;;;;;14.59;71.48;97313.38;6276221;22;20359;-78
2022/10/17 04:36:56;;;;;;;6.80;1.75;;;;;;;14.57;71.54;97313.56;6275944;22;20024;-78
2022/10/17 04:39:24;;;;;;;5.72;2.35;;;;;;;14.56;71.42;97309.34;6276555;22;20066;-77
2022/10/17 04:41:52;;;;;;;4.55;1.83;;;;;;;14.57;71.66;97318.00;6276626;22;20028;-78
2022/10/17 04:44:29;;;;;;;6.00;1.98;;;;;;;14.58;71.67;97327.50;6276039;22;20107;-78
2022/10/17 04:46:57;;;;;;;2.33;1.55;;;;;;;14.57;71.40;97325.88;6276686;22;20023;-78
2022/10/17 04:49:25;;;;;;;3.63;1.40;;;;;;;14.60;71.68;97320.25;6276337;22;20099;-77
2022/10/17 04:51:54;;;;;;;5.30;1.83;;;;;;;14.65;72.93;97323.13;6277832;22;20458;-78
2022/10/17 04:54:25;;;;;;;5.38;1.88;;;;;;;14.69;72.98;97319.09;6278548;22;20016;-79
2022/10/17 04:56:53;;;;;;;2.17;1.70;;;;;;;14.70;72.74;97319.94;6278440;22;20027;-78
2022/10/17 04:59:22;;;;;;;5.03;1.40;;;;;;;14.70;73.58;97323.38;6278546;22;20024;-79
2022/10/17 05:01:50;;;;;;;1.90;1.38;;;;;;;14.68;72.83;97325.38;6278170;22;20462;-78
2022/10/17 05:04:18;;;;;;;4.30;2.00;;;;;;;14.69;73.80;97326.97;6278359;22;20577;-79
2022/10/17 05:06:59;;;;;;;5.28;1.80;;;;;;;14.74;74.78;97327.25;6279971;22;20028;-79
2022/10/17 05:09:28;;;;;;;4.05;2.17;;;;;;;14.74;73.52;97329.06;6278717;22;20012;-77
2022/10/17 05:11:56;;;;;;;5.10;1.95;;;;;;;14.71;73.68;97332.84;6278078;22;20019;-80
2022/10/17 05:14:24;;;;;;;10.20;3.15;;;;;;;14.63;71.96;97325.94;6278101;22;20027;-80
2022/10/17 05:16:55;;;;;;;6.63;2.42;;;;;;;14.58;72.21;97323.09;6278029;22;20039;-81
2022/10/17 05:30:10;;;;;;;6.75;3.17;;;;;;;14.49;71.65;97336.47;6293968;22;20082;-80
2022/10/17 05:32:38;;;;;;;10.48;2.97;;;;;;;14.46;71.72;97340.31;6309331;22;20098;-80
2022/10/17 05:35:07;;;;;;;5.93;2.42;;;;;;;14.42;71.61;97345.09;6308770;22;20015;-80
2022/10/17 05:37:35;;;;;;;16.30;2.75;;;;;;;14.39;71.68;97350.75;6300001;22;20494;-80
2022/10/17 05:40:03;;;;;;;3.55;2.05;;;;;;;14.35;71.86;97354.72;6278298;22;20047;-80
2022/10/17 05:42:31;;;;;;;1.83;1.65;;;;;;;14.34;72.03;97358.38;6278267;22;20020;-80
2022/10/17 05:45:00;;;;;;;3.88;1.55;;;;;;;14.33;71.94;97356.72;6277816;22;20057;-80
2022/10/17 05:47:29;;;;;;;5.60;1.92;;;;;;;14.36;72.83;97360.78;6277835;22;20054;-80
2022/10/17 05:50:02;;;;;;;2.55;1.90;;;;;;;14.39;73.65;97353.38;6277816;22;20077;-80
2022/10/17 06:40:32;;;;;;;4.90;2.53;;;;;;;15.68;72.33;97385.66;6301027;22;20225;-80
2022/10/17 06:43:00;;;;;;;6.00;2.65;;;;;;;15.83;71.58;97389.81;6308712;22;20029;-80
2022/10/17 06:45:28;;;;;;;4.80;2.40;;;;;;;15.97;71.16;97395.13;6307951;22;20015;-80
2022/10/17 06:47:56;;;;;;;5.78;3.17;;;;;;;16.14;70.51;97400.88;6295135;22;20023;-80
2022/10/17 06:50:39;;;;;;;4.60;3.00;;;;;;;16.23;70.17;97399.69;6277123;22;20447;-80
2022/10/17 06:53:37;;;;;;;2.90;2.65;;;;;;;16.37;70.00;97403.16;6275045;22;20035;-80
2022/10/17 07:05:12;;;;;;;5.30;3.15;;;;;;;16.88;67.87;97398.22;6277666;22;20060;-80
2022/10/17 08:41:00;;;;;;;3.22;1.52;;;;;;;26.85;42.52;97454.38;6272037;22;20014;-77
2022/10/17 08:43:35;;;;;;;4.57;1.83;;;;;;;27.43;40.61;97449.59;6335731;22;20051;-77
2022/10/17 08:46:06;;;;;;;3.10;1.70;;;;;;;27.92;39.92;97449.00;6335514;22;20003;-77
2022/10/17 08:48:39;;;;;;;3.75;2.05;;;;;;;28.40;38.56;97456.56;6313830;22;20003;-77
2022/10/17 08:51:17;;;;;;;3.33;1.83;;;;;;;28.66;38.17;97457.25;6304283;22;20011;-77
2022/10/17 08:53:48;;;;;;;;;;;;;;;28.75;40.85;97458.31;6278560;22;20063;-77
2022/10/17 08:56:20;;;;;;;5.88;1.80;;;;;;;29.32;37.50;97466.78;6304211;22;19950;-77
2022/10/17 08:59:05;;;;;;;2.40;1.42;;;;;;;30.21;35.70;97460.22;6303861;22;20008;-78
2022/10/17 09:01:39;;;;;;;1.88;1.50;;;;;;;30.89;34.70;97461.78;6304050;22;20057;-79
2022/10/17 09:04:26;;;;;;;2.38;1.33;;;;;;;31.57;33.94;97463.09;6303915;22;20018;-79
2022/10/17 09:07:01;;;;;;;2.15;1.10;;;;;;;32.13;32.83;97452.41;6298477;22;20024;-80
2022/10/17 09:09:37;;;;;;;5.15;1.15;;;;;;;32.50;31.88;97453.25;6285630;22;20016;-80
2022/10/17 09:12:15;;;;;;;1.88;1.15;;;;;;;32.73;31.27;97454.88;6277585;22;20012;-81
2022/10/17 09:15:10;;;;;;;2.75;1.40;;;;;;;32.90;32.01;97453.44;6275503;22;20359;-80
2022/10/17 09:17:50;;;;;;;2.25;1.45;;;;;;;33.59;29.83;97459.34;6275496;22;20020;-81
2022/10/17 09:20:22;;;;;;;2.10;1.10;;;;;;;34.33;28.06;97454.38;6278883;22;20026;-81
2022/10/17 09:22:56;;;;;;;1.55;1.23;;;;;;;35.00;27.28;97455.88;6280997;22;20023;-81
2022/10/17 09:25:25;;;;;;;2.72;1.33;;;;;;;35.79;26.60;97456.53;6278413;22;20030;-82
2022/10/17 09:28:03;;;;;;;1.85;1.67;;;;;;;36.32;24.58;97455.19;6277365;22;20070;-81
2022/10/17 09:30:36;;;;;;;3.00;1.20;;;;;;;36.93;24.28;97446.56;6279080;22;20026;-81
2022/10/17 09:33:14;;;;;;;5.35;1.30;;;;;;;37.62;23.86;97458.75;6279465;22;20019;-82
2022/10/17 09:36:03;;;;;;;7.25;1.25;;;;;;;38.00;23.20;97454.09;6279499;22;20051;-82
2022/10/17 09:38:38;;;;;;;1.77;1.10;;;;;;;37.95;22.86;97446.19;6281258;22;20103;-82
2022/10/17 09:41:13;;;;;;;2.90;1.05;;;;;;;37.94;23.13;97445.38;6281454;22;20023;-83
2022/10/17 09:44:14;;;;;;;1.63;1.02;;;;;;;38.19;22.28;97450.84;6281653;22;20073;-82
2022/10/17 09:46:50;;;;;;;2.03;1.10;;;;;;;38.48;21.93;97442.41;6281447;22;20019;-82
2022/10/17 09:49:27;;;;;;;3.53;1.10;;;;;;;38.92;21.69;97439.78;6280568;22;20026;-82
2022/10/17 09:51:55;;;;;;;3.47;0.90;;;;;;;38.74;21.68;97435.75;6281632;22;20022;-83
2022/10/17 09:54:25;;;;;;;1.83;1.13;;;;;;;38.04;22.29;97444.16;6280568;22;20019;-82
2022/10/17 09:57:01;;;;;;;1.92;1.10;;;;;;;37.85;22.47;97441.97;6281928;22;20023;-82
2022/10/17 09:59:35;;;;;;;2.00;1.00;;;;;;;38.59;23.18;97444.66;6280023;22;20020;-82
2022/10/17 10:02:16;;;;;;;1.77;1.02;;;;;;;39.90;21.02;97446.63;6279701;22;20020;-82
2022/10/17 10:04:56;;;;;;;3.88;1.10;;;;;;;40.93;19.65;97447.34;6279427;22;20022;-81
2022/10/17 10:07:36;;;;;;;1.45;0.90;;;;;;;41.74;19.72;97442.97;6279591;22;20405;-82
2022/10/17 10:10:07;;;;;;;1.23;1.13;;;;;;;42.28;18.30;97449.28;6279544;22;20090;-81
2022/10/17 10:12:36;;;;;;;2.55;1.00;;;;;;;42.50;18.08;97451.19;6279384;22;20416;-81
2022/10/17 10:15:34;;;;;;;2.28;1.30;;;;;;;42.47;17.83;97445.66;6279105;22;20022;-82
2022/10/17 10:18:02;;;;;;;0.93;0.90;;;;;;;42.85;17.21;97441.84;6278292;22;20020;-81
2022/10/17 10:20:35;;;;;;;2.95;1.00;;;;;;;43.14;18.11;97453.13;6278503;22;20020;-81
2022/10/17 10:23:12;;;;;;;0.90;0.90;;;;;;;43.21;16.93;97450.47;6278065;22;20463;-81
2022/10/17 10:25:53;;;;;;;1.58;0.75;;;;;;;43.34;17.38;97438.06;6278977;22;20019;-81
2022/10/17 10:28:23;;;;;;;1.30;0.85;;;;;;;43.67;16.35;97436.44;6277802;22;20359;-81
2022/10/17 10:30:54;;;;;;;1.48;1.20;;;;;;;43.97;15.82;97446.44;6278051;22;20026;-81
2022/10/17 10:33:25;;;;;;;2.25;1.55;;;;;;;44.60;15.94;97439.00;6278512;22;20446;-82
2022/10/17 10:35:56;;;;;;;2.50;1.10;;;;;;;45.16;14.71;97431.34;6278378;22;20103;-81
2022/10/17 10:38:24;;;;;;;1.45;0.93;;;;;;;45.28;15.07;97432.94;6277296;22;20023;-82
2022/10/17 10:40:54;;;;;;;3.70;1.10;;;;;;;45.35;15.13;97433.72;6278670;22;20019;-81
2022/10/17 10:43:34;;;;;;;2.40;1.20;;;;;;;45.40;14.80;97436.13;6280042;22;20023;-81
2022/10/17 10:46:06;;;;;;;6.70;1.48;;;;;;;45.15;14.71;97430.53;6279429;22;20015;-82
2022/10/17 10:48:35;;;;;;;2.88;1.20;;;;;;;44.45;15.38;97432.63;6279563;22;20026;-81
2022/10/17 10:51:07;;;;;;;1.17;1.00;;;;;;;43.96;15.63;97428.38;6278508;22;20020;-82
2022/10/17 10:53:44;;;;;;;1.75;0.90;;;;;;;43.55;16.63;97426.47;6279840;22;20019;-81
2022/10/17 10:56:16;;;;;;;1.88;0.95;;;;;;;43.12;16.41;97430.75;6279525;22;20410;-81
2022/10/17 10:58:52;;;;;;;0.88;0.88;;;;;;;42.85;16.67;97421.84;6278267;22;20024;-82
2022/10/17 11:01:29;;;;;;;1.02;0.93;;;;;;;42.26;17.38;97426.94;6280560;22;20016;-82
2022/10/17 11:04:07;;;;;;;4.97;1.00;;;;;;;41.61;17.89;97414.19;6279235;22;20019;-81
2022/10/17 11:06:37;;;;;;;2.58;0.90;;;;;;;41.50;18.12;97422.19;6278760;22;20016;-81
2022/10/17 11:09:19;;;;;;;7.83;1.93;;;;;;;41.56;18.92;97420.75;6277858;22;20023;-81
2022/10/17 11:11:48;;;;;;;;;;;;;;;42.54;18.85;97423.81;6278668;22;20023;-82
2022/10/17 11:14:21;;;;;;;48.97;6.75;;;;;;;43.31;18.09;97416.84;6280420;22;19919;-82
2022/10/17 11:16:58;;;;;;;3.08;1.27;;;;;;;43.41;17.09;97415.38;6279566;22;20023;-82
2022/10/17 11:19:31;;;;;;;18.60;2.65;;;;;;;43.30;17.13;97409.00;6279714;22;20026;-82
2022/10/17 11:22:09;;;;;;;2.35;1.10;;;;;;;43.66;17.23;97410.09;6279729;22;20016;-82
2022/10/17 11:24:43;;;;;;;4.25;1.80;;;;;;;44.56;16.85;97416.97;6279779;22;20016;-82
2022/10/17 11:27:10;;;;;;;2.22;0.90;;;;;;;45.17;16.65;97421.88;6280430;22;20043;-82
2022/10/17 11:29:41;;;;;;;3.08;0.85;;;;;;;45.19;15.57;97419.53;6279012;22;20034;-82
2022/10/17 11:32:15;;;;;;;2.38;1.20;;;;;;;45.19;15.24;97420.31;6280341;22;20028;-82
2022/10/17 11:34:46;;;;;;;2.83;1.23;;;;;;;45.61;14.83;97423.53;6280687;22;20054;-82
2022/10/17 11:37:18;;;;;;;2.08;0.90;;;;;;;46.19;14.67;97435.31;6281236;22;20099;-81
2022/10/17 11:39:51;;;;;;;1.90;1.20;;;;;;;46.84;13.24;97441.41;6280535;22;20077;-82
2022/10/17 11:42:24;;;;;;;4.85;2.00;;;;;;;47.54;13.32;97437.84;6281005;22;20463;-82
2022/10/17 11:44:58;;;;;;;3.25;2.22;;;;;;;48.31;12.22;97437.56;6280846;22;20024;-85
2022/10/17 11:47:44;;;;;;;3.13;1.33;;;;;;;49.01;12.26;97439.13;6279585;22;20019;-82
2022/10/17 11:50:21;;;;;;;1.40;1.30;;;;;;;49.54;11.49;97439.53;6279547;22;20016;-82
2022/10/17 11:53:13;;;;;;;4.35;1.70;;;;;;;50.09;11.11;97429.88;6279852;22;20406;-82
2022/10/17 11:55:42;;;;;;;3.55;2.22;;;;;;;50.35;11.24;97427.41;6280550;22;20023;-82
2022/10/17 11:58:24;;;;;;;2.42;1.20;;;;;;;50.09;10.64;97427.09;6280332;22;20098;-82
2022/10/17 12:01:00;;;;;;;2.63;1.30;;;;;;;49.56;11.26;97426.03;6280069;22;20073;-83
2022/10/17 12:03:42;;;;;;;4.18;1.70;;;;;;;49.39;12.00;97414.78;6279668;22;20023;-82
2022/10/17 12:06:18;;;;;;;2.33;1.00;;;;;;;48.88;11.61;97416.72;6279380;22;20051;-82
2022/10/17 12:08:53;;;;;;;2.15;0.98;;;;;;;47.35;12.89;97409.56;6281519;22;20019;-82
2022/10/17 12:11:39;;;;;;;2.10;0.90;;;;;;;45.31;14.03;97399.09;6285460;22;20026;-82
2022/10/17 12:14:36;;;;;;;2.45;0.88;;;;;;;43.34;16.10;97396.88;6283551;22;20069;-82
2022/10/17 12:17:05;;;;;;;0.63;0.55;;;;;;;42.06;17.42;97399.66;6282899;22;20440;-82
2022/10/17 12:19:36;;;;;;;1.50;0.60;;;;;;;40.88;18.02;97387.47;6281777;22;20035;-82
2022/10/17 12:22:19;;;;;;;2.42;0.75;;;;;;;39.96;18.80;97387.06;6281722;22;20016;-82
2022/10/17 12:24:55;;;;;;;1.65;0.73;;;;;;;39.13;19.18;97384.22;6281531;22;20463;-82
2022/10/17 12:27:40;;;;;;;1.75;0.75;;;;;;;38.37;19.24;97391.44;6280485;22;20024;-82
2022/10/17 12:30:23;;;;;;;3.80;0.85;;;;;;;37.69;19.42;97392.84;6280913;22;20026;-82
2022/10/17 12:33:04;;;;;;;1.95;1.00;;;;;;;37.04;19.56;97392.56;6280195;22;20107;-82
2022/10/17 12:35:37;;;;;;;5.30;0.85;;;;;;;36.43;19.95;97396.63;6280647;22;20381;-82
2022/10/17 12:38:24;;;;;;;2.22;0.70;;;;;;;35.82;20.13;97382.59;6279847;22;20016;-83
2022/10/17 12:41:01;;;;;;;1.20;0.60;;;;;;;35.40;20.66;97387.84;6279618;22;20467;-83
2022/10/17 12:43:50;;;;;;;1.52;0.60;;;;;;;34.96;21.37;97392.56;6279726;22;20283;-82
2022/10/17 12:46:55;;;;;;;4.30;1.02;;;;;;;34.50;22.05;97389.38;6279551;22;20016;-82
2022/10/17 12:49:42;;;;;;;2.95;0.80;;;;;;;34.11;21.88;97383.00;6278671;22;20016;-83
2022/10/17 12:52:21;;;;;;;5.07;1.13;;;;;;;33.77;22.36;97389.88;6279081;22;20364;-83
2022/10/17 12:54:53;;;;;;;2.13;0.60;;;;;;;33.43;22.44;97385.09;6279019;22;20019;-83
2022/10/17 12:57:43;;;;;;;3.80;0.88;;;;;;;33.08;22.39;97390.31;6278609;22;20023;-83
2022/10/17 13:00:19;;;;;;;1.60;0.75;;;;;;;32.78;23.24;97397.25;6277962;22;20038;-83
2022/10/17 13:02:48;;;;;;;1.85;0.70;;;;;;;32.58;23.58;97401.22;6278179;22;20020;-83
2022/10/17 13:05:21;;;;;;;2.38;1.30;;;;;;;32.37;23.49;97393.56;6278233;22;20018;-83
2022/10/17 13:07:52;;;;;;;1.77;0.57;;;;;;;32.15;23.68;97385.41;6277911;22;20031;-83
2022/10/17 13:10:23;;;;;;;1.17;0.63;;;;;;;31.96;24.33;97389.00;6277808;22;20098;-83
2022/10/17 13:12:53;;;;;;;3.67;0.70;;;;;;;31.80;26.54;97398.50;6279328;22;20026;-83
2022/10/17 13:15:21;;;;;;;7.80;0.85;;;;;;;31.61;25.00;97395.91;6279242;22;20473;-83
2022/10/17 13:17:57;;;;;;;8.35;1.15;;;;;;;31.43;25.62;97396.78;6279123;22;20023;-83
2022/10/17 13:20:27;;;;;;;12.90;2.38;;;;;;;31.28;25.36;97398.63;6279524;22;20023;-82
2022/10/17 13:22:59;;;;;;;1.15;0.70;;;;;;;31.15;26.43;97396.69;6278979;22;20529;-83
2022/10/17 13:25:28;;;;;;;2.92;0.90;;;;;;;31.00;26.17;97395.84;6279343;22;20015;-83
2022/10/17 13:28:12;;;;;;;2.38;0.70;;;;;;;30.83;26.31;97390.22;6278974;22;20043;-83
2022/10/17 13:30:39;;;;;;;4.00;0.90;;;;;;;30.69;26.57;97398.22;6278711;22;20371;-83
2022/10/17 13:33:28;;;;;;;36.97;4.55;;;;;;;30.58;26.89;97402.16;6278464;22;20082;-83
2022/10/17 13:35:56;;;;;;;4.45;0.77;;;;;;;30.48;27.25;97395.03;6277665;22;20027;-82
2022/10/17 13:38:32;;;;;;;18.45;2.90;;;;;;;30.38;27.73;97395.97;6277105;22;20102;-82
2022/10/17 13:41:04;;;;;;;4.05;1.20;;;;;;;30.30;28.33;97399.31;6277109;22;20035;-83
2022/10/17 13:43:52;;;;;;;6.15;1.38;;;;;;;30.22;28.18;97402.63;6276928;22;20348;-83
2022/10/17 13:46:26;;;;;;;6.65;1.30;;;;;;;30.13;28.34;97404.34;6276664;22;20026;-82
2022/10/17 13:49:12;;;;;;;2.10;0.70;;;;;;;30.01;28.24;97401.28;6276564;22;20023;-82
2022/10/17 13:51:44;;;;;;;2.13;0.85;;;;;;;29.88;29.17;97403.59;6277349;22;20024;-82
2022/10/17 13:54:35;;;;;;;2.53;1.00;;;;;;;29.77;28.75;97402.91;6277265;22;20042;-81
2022/10/17 13:57:05;;;;;;;6.85;1.10;;;;;;;29.65;29.76;97409.72;6269269;22;20027;-81
2022/10/17 13:59:38;;;;;;;2.08;1.30;;;;;;;29.54;29.40;97403.66;6276634;22;20026;-81
2022/10/17 14:02:11;;;;;;;4.53;1.38;;;;;;;29.42;29.89;97406.75;6277025;22;20020;-82
2022/10/17 14:04:39;;;;;;;2.33;0.65;;;;;;;29.31;30.55;97405.25;6277185;22;20356;-82
2022/10/17 14:07:33;;;;;;;4.80;0.85;;;;;;;29.16;30.49;97409.66;6276584;22;20027;-81
2022/10/17 14:10:24;;;;;;;1.65;1.08;;;;;;;29.04;30.66;97411.91;6276750;22;20081;-82
2022/10/17 14:12:54;;;;;;;2.83;0.90;;;;;;;28.93;31.84;97411.19;6277388;22;20020;-83
2022/10/17 14:15:25;;;;;;;4.93;0.90;;;;;;;28.87;32.91;97411.50;6276448;22;20482;-82
2022/10/17 14:17:56;;;;;;;3.40;0.70;;;;;;;28.81;31.04;97415.28;6276837;22;20026;-82
2022/10/17 14:20:24;;;;;;;3.25;0.95;;;;;;;28.72;30.91;97407.81;6277320;22;20020;-80
2022/10/17 14:23:30;;;;;;;3.67;0.93;;;;;;;28.61;31.40;97408.19;6276149;22;20016;-81
2022/10/17 14:26:07;;;;;;;5.43;0.95;;;;;;;28.51;31.95;97425.13;6276807;22;20463;-82
2022/10/17 14:28:36;;;;;;;5.65;1.02;;;;;;;28.42;31.89;97432.16;6276442;22;20397;-81
2022/10/17 14:31:16;;;;;;;2.55;1.13;;;;;;;28.30;31.79;97422.56;6276773;22;20485;-81
2022/10/17 14:33:45;;;;;;;2.15;0.88;;;;;;;28.20;32.04;97419.91;6277604;22;20455;-82
2022/10/17 14:36:18;;;;;;;1.63;0.80;;;;;;;28.09;32.30;97421.03;6278513;22;20020;-83
2022/10/17 14:38:48;;;;;;;4.68;1.42;;;;;;;27.99;33.26;97423.75;6279247;22;20402;-81
2022/10/17 14:44:36;;;;;;;3.27;1.20;;;;;;;27.82;33.46;97418.72;6277834;22;20138;-82
2022/10/17 17:02:46;;;;;;;7.82;2.17;;;;;;;22.58;50.94;97514.88;6330931;22;20023;-84
2022/10/17 17:05:18;;;;;;;7.07;2.67;;;;;;;22.44;51.30;97505.56;6338119;22;20023;-83
2022/10/17 17:11:03;;;;;;;4.95;2.50;;;;;;;22.17;52.02;97513.19;6296889;22;20036;-79